Time;durP1;ratioP1;P1;durP2;ratioP2;P2;SDS_P1;SDS_P2;PMS_P1;PMS_P2;Temp;Humidity;BMP_temperature;BMP_pressure;BME280_temperature;BME280_humidity;BME280_pressure;Samples;Min_cycle;Max_cycle;Signal;HPM_P1;HPM_P2
2023/08/23 00:01:27;;;;;;;3.35;1.90;;;21.90;93.00;;;;;;6101309;23;20013;-79
2023/08/23 00:03:52;;;;;;;2.08;1.65;;;21.80;93.00;;;;;;6101068;23;20006;-78
2023/08/23 00:06:18;;;;;;;2.63;1.60;;;21.90;93.00;;;;;;6101424;23;20110;-79
2023/08/23 00:08:43;;;;;;;2.63;1.80;;;21.80;93.00;;;;;;6100816;23;20009;-80
2023/08/23 00:11:09;;;;;;;2.30;1.60;;;21.90;93.00;;;;;;6126803;23;20021;-78
2023/08/23 00:13:34;;;;;;;3.05;1.83;;;21.90;93.00;;;;;;6131245;23;19998;-80
2023/08/23 00:16:00;;;;;;;3.40;1.80;;;21.80;93.00;;;;;;6106754;23;20004;-80
2023/08/23 00:18:25;;;;;;;3.38;1.73;;;21.80;93.00;;;;;;6106716;23;20388;-79
2023/08/23 00:20:51;;;;;;;2.92;1.90;;;21.90;93.00;;;;;;6132342;23;20009;-80
2023/08/23 00:23:16;;;;;;;2.72;1.88;;;21.90;93.10;;;;;;6131879;23;20013;-81
2023/08/23 00:25:42;;;;;;;2.42;1.63;;;21.90;93.00;;;;;;6105765;23;20102;-79
2023/08/23 00:28:07;;;;;;;2.90;1.90;;;21.90;93.00;;;;;;6105737;23;20006;-80
2023/08/23 00:30:32;;;;;;;2.47;1.52;;;21.90;93.00;;;;;;6131626;23;19994;-80
2023/08/23 00:32:58;;;;;;;2.67;1.70;;;21.90;93.00;;;;;;6105236;23;20009;-80
2023/08/23 00:35:23;;;;;;;3.50;1.80;;;21.90;92.90;;;;;;6107820;23;19994;-80
2023/08/23 00:37:49;;;;;;;3.58;1.90;;;22.00;92.90;;;;;;6106613;23;20353;-80
2023/08/23 00:40:15;;;;;;;2.55;1.70;;;22.00;92.90;;;;;;6106251;23;20006;-80
2023/08/23 00:42:40;;;;;;;2.47;1.70;;;21.90;92.90;;;;;;6106099;23;20013;-80
2023/08/23 00:45:06;;;;;;;2.40;1.55;;;22.00;92.90;;;;;;6131523;23;20093;-81
2023/08/23 00:47:32;;;;;;;3.17;1.60;;;22.00;93.10;;;;;;6131196;23;20032;-80
2023/08/23 00:49:57;;;;;;;3.20;1.92;;;22.00;92.80;;;;;;6105401;23;20501;-79
2023/08/23 00:52:27;;;;;;;2.33;1.65;;;21.90;92.80;;;;;;6105206;23;20002;-79
2023/08/23 00:54:53;;;;;;;3.42;1.73;;;22.00;92.90;;;;;;6130546;23;20008;-79
2023/08/23 00:57:20;;;;;;;2.08;1.52;;;21.90;92.90;;;;;;6104523;23;20006;-76
2023/08/23 00:59:46;;;;;;;3.15;1.90;;;22.00;93.00;;;;;;6130988;23;20373;-79
2023/08/23 01:02:12;;;;;;;2.70;1.67;;;21.90;93.00;;;;;;6104171;23;20041;-79
2023/08/23 01:04:37;;;;;;;2.38;1.60;;;21.90;93.00;;;;;;6104200;23;20006;-78
2023/08/23 01:07:23;;;;;;;3.10;1.90;;;21.90;93.10;;;;;;6104109;23;20002;-80
2023/08/23 01:10:01;;;;;;;2.47;1.73;;;21.90;93.00;;;;;;6103582;23;20441;-79
2023/08/23 01:12:39;;;;;;;2.50;1.70;;;21.80;93.00;;;;;;6103623;23;20012;-78
2023/08/23 01:15:13;;;;;;;3.13;1.88;;;21.90;93.10;;;;;;6130575;23;20068;-78
2023/08/23 01:17:42;;;;;;;2.05;1.50;;;21.80;93.00;;;;;;6129738;23;20016;-79
2023/08/23 01:20:13;;;;;;;3.03;1.70;;;21.90;93.00;;;;;;6102982;23;20029;-79
2023/08/23 01:22:45;;;;;;;2.72;1.73;;;21.80;93.10;;;;;;6102963;23;20010;-79
2023/08/23 01:25:11;;;;;;;2.58;1.77;;;21.80;93.10;;;;;;6129162;23;20033;-78
2023/08/23 01:27:36;;;;;;;2.95;1.67;;;21.80;93.10;;;;;;6102782;23;20322;-79
2023/08/23 01:30:02;;;;;;;3.03;1.75;;;21.80;93.10;;;;;;6102455;23;20092;-79
2023/08/23 01:32:50;;;;;;;3.40;1.90;;;21.80;93.00;;;;;;6128579;23;20009;-79
2023/08/23 01:35:20;;;;;;;2.08;1.58;;;21.80;93.00;;;;;;6128760;23;20002;-78
2023/08/23 01:37:51;;;;;;;3.53;1.90;;;21.80;93.00;;;;;;6129288;23;20002;-78
2023/08/23 01:40:17;;;;;;;3.92;1.70;;;21.80;93.00;;;;;;6128743;23;20041;-79
2023/08/23 01:42:44;;;;;;;2.75;1.70;;;21.80;93.00;;;;;;6101954;23;20006;-78
2023/08/23 01:45:10;;;;;;;2.72;1.80;;;21.80;93.00;;;;;;6127806;23;20504;-79
2023/08/23 01:47:35;;;;;;;2.95;1.92;;;21.80;93.00;;;;;;6128376;23;20030;-81
2023/08/23 01:50:01;;;;;;;2.88;1.73;;;21.80;93.00;;;;;;6101699;23;20029;-78
2023/08/23 01:52:27;;;;;;;2.55;1.60;;;21.80;93.00;;;;;;6101607;23;20006;-78
2023/08/23 01:54:52;;;;;;;2.47;1.67;;;21.80;93.00;;;;;;6127983;23;20002;-78
2023/08/23 01:57:18;;;;;;;2.50;1.60;;;21.80;93.00;;;;;;6101421;23;20445;-79
2023/08/23 01:59:45;;;;;;;2.53;1.60;;;21.80;93.00;;;;;;6101298;23;20005;-78
2023/08/23 02:02:10;;;;;;;3.22;1.70;;;21.90;93.00;;;;;;6101135;23;20041;-80
2023/08/23 02:04:36;;;;;;;3.10;1.90;;;21.90;93.00;;;;;;6127038;23;20060;-79
2023/08/23 02:07:01;;;;;;;2.28;1.60;;;21.90;92.90;;;;;;6100358;23;20006;-75
2023/08/23 02:09:28;;;;;;;2.58;1.73;;;21.90;92.90;;;;;;6125465;23;20006;-79
2023/08/23 02:11:53;;;;;;;3.28;1.70;;;21.90;92.90;;;;;;6127254;23;20437;-79
2023/08/23 02:14:19;;;;;;;2.40;1.70;;;21.90;92.90;;;;;;6126997;23;20006;-78
2023/08/23 02:16:44;;;;;;;2.42;1.50;;;21.90;92.90;;;;;;6100418;23;20002;-78
2023/08/23 02:19:10;;;;;;;3.58;2.08;;;22.00;92.90;;;;;;6100618;23;20005;-79
2023/08/23 02:21:36;;;;;;;3.25;1.70;;;21.90;92.80;;;;;;6100897;23;20001;-79
2023/08/23 02:24:01;;;;;;;2.92;1.70;;;21.90;92.90;;;;;;6126746;23;20060;-79
2023/08/23 02:26:27;;;;;;;2.63;1.70;;;21.90;92.90;;;;;;6100541;23;20349;-79
2023/08/23 02:28:53;;;;;;;1.95;1.55;;;21.90;92.90;;;;;;6100554;23;19997;-78
2023/08/23 02:31:18;;;;;;;3.15;1.88;;;21.80;93.00;;;;;;6100768;23;20006;-79
2023/08/23 02:33:44;;;;;;;2.60;1.70;;;21.90;93.00;;;;;;6100082;23;20415;-79
2023/08/23 02:36:09;;;;;;;2.67;1.67;;;21.90;93.10;;;;;;6100165;23;20093;-79
2023/08/23 02:38:35;;;;;;;2.35;1.42;;;21.90;93.00;;;;;;6126544;23;20425;-79
2023/08/23 02:41:00;;;;;;;2.83;1.73;;;21.80;93.00;;;;;;6126555;23;20090;-78
2023/08/23 02:43:26;;;;;;;2.72;1.60;;;21.80;93.00;;;;;;6100240;23;20010;-76
2023/08/23 02:45:51;;;;;;;2.75;1.77;;;21.80;93.00;;;;;;6126074;23;20041;-78
2023/08/23 02:48:17;;;;;;;3.65;2.17;;;21.80;93.00;;;;;;6126708;23;20077;-79
2023/08/23 02:50:43;;;;;;;2.30;1.63;;;21.80;93.00;;;;;;6100654;23;20085;-78
2023/08/23 02:53:10;;;;;;;2.65;1.60;;;21.80;93.10;;;;;;6099994;23;20353;-78
2023/08/23 02:55:37;;;;;;;3.03;1.77;;;21.70;93.00;;;;;;6125906;23;20065;-79
2023/08/23 02:58:03;;;;;;;2.85;1.90;;;21.80;93.10;;;;;;6099505;23;20040;-79
2023/08/23 03:00:29;;;;;;;2.80;1.60;;;21.80;93.10;;;;;;6125958;23;20485;-78
2023/08/23 03:02:55;;;;;;;1.98;1.63;;;21.80;93.00;;;;;;6100063;23;20041;-79
2023/08/23 03:05:20;;;;;;;2.50;1.70;;;21.80;93.00;;;;;;6099683;23;20006;-78
2023/08/23 03:07:46;;;;;;;3.05;1.88;;;21.80;93.00;;;;;;6099912;23;20002;-79
2023/08/23 03:10:12;;;;;;;2.85;1.80;;;21.80;93.00;;;;;;6100074;23;20006;-78
2023/08/23 03:12:37;;;;;;;3.15;1.70;;;21.70;93.00;;;;;;6100266;23;20002;-78
2023/08/23 03:15:03;;;;;;;2.92;1.80;;;21.70;93.00;;;;;;6099824;23;20009;-78
2023/08/23 03:17:28;;;;;;;2.20;1.58;;;21.80;93.00;;;;;;6100236;23;20042;-78
2023/08/23 03:19:56;;;;;;;3.10;1.80;;;21.70;93.00;;;;;;6099918;23;20034;-78
2023/08/23 03:22:21;;;;;;;3.35;1.80;;;21.80;93.00;;;;;;6126063;23;20014;-78
2023/08/23 03:24:47;;;;;;;2.38;1.60;;;21.80;93.00;;;;;;6099779;23;19998;-79
2023/08/23 03:27:12;;;;;;;2.72;1.73;;;21.80;93.00;;;;;;6126092;23;20010;-78
2023/08/23 03:29:38;;;;;;;2.30;1.70;;;21.80;93.00;;;;;;6094885;23;20010;-79
2023/08/23 03:32:03;;;;;;;3.80;1.70;;;21.90;93.30;;;;;;6098828;23;20065;-80
2023/08/23 03:34:29;;;;;;;2.08;1.50;;;21.90;93.00;;;;;;6105870;23;20010;-80
2023/08/23 03:36:54;;;;;;;2.63;1.73;;;21.80;92.90;;;;;;6126760;23;20009;-80
2023/08/23 03:39:20;;;;;;;2.63;1.58;;;21.90;92.90;;;;;;6100644;23;20009;-80
2023/08/23 03:41:47;;;;;;;2.28;1.50;;;21.90;92.90;;;;;;6126614;23;20009;-80
2023/08/23 03:44:12;;;;;;;2.50;1.45;;;21.90;92.90;;;;;;6099406;23;20017;-79
2023/08/23 03:46:38;;;;;;;2.85;1.65;;;21.90;92.90;;;;;;6100668;23;20006;-79
2023/08/23 03:49:03;;;;;;;4.10;1.90;;;21.90;92.80;;;;;;6100944;23;20006;-80
2023/08/23 03:51:29;;;;;;;2.22;1.70;;;21.80;92.80;;;;;;6099856;23;20483;-80
2023/08/23 03:53:54;;;;;;;3.22;1.60;;;21.90;92.80;;;;;;6103764;23;20058;-79
2023/08/23 03:56:20;;;;;;;3.15;1.75;;;21.90;92.80;;;;;;6102841;23;20060;-80
2023/08/23 03:58:46;;;;;;;2.92;1.70;;;21.90;92.90;;;;;;6098167;23;20101;-80
2023/08/23 04:01:11;;;;;;;2.38;1.65;;;21.90;92.90;;;;;;6124971;23;20432;-80
2023/08/23 04:03:37;;;;;;;2.03;1.52;;;21.80;93.00;;;;;;6098669;23;20037;-80
2023/08/23 04:06:02;;;;;;;2.97;1.63;;;21.80;93.00;;;;;;6098664;23;20441;-80
2023/08/23 04:08:28;;;;;;;3.47;1.80;;;21.80;93.00;;;;;;6097869;23;20014;-79
2023/08/23 04:10:54;;;;;;;2.78;1.85;;;21.70;93.00;;;;;;6099221;23;20045;-80
2023/08/23 04:16:07;;;;;;;4.15;2.20;;;21.80;93.00;;;;;;6126960;23;20026;-79
2023/08/23 04:18:36;;;;;;;4.07;1.92;;;22.60;93.50;;;;;;6123489;23;20084;-80
2023/08/23 04:21:02;;;;;;;2.50;1.70;;;22.10;93.10;;;;;;6121022;23;20017;-78
2023/08/23 04:23:28;;;;;;;3.55;1.85;;;21.80;93.00;;;;;;6120069;23;20874;-78
2023/08/23 04:25:53;;;;;;;2.75;1.90;;;22.00;93.10;;;;;;6117769;23;20513;-79
2023/08/23 04:28:19;;;;;;;3.42;1.90;;;21.70;92.90;;;;;;6118628;23;20013;-78
2023/08/23 04:30:45;;;;;;;3.20;1.85;;;21.70;93.00;;;;;;6118967;23;20080;-79
2023/08/23 04:33:11;;;;;;;2.55;1.60;;;21.80;93.00;;;;;;6119655;23;20005;-77
2023/08/23 04:35:37;;;;;;;2.95;1.80;;;21.70;93.00;;;;;;6118933;23;20025;-78
2023/08/23 04:38:04;;;;;;;2.80;1.80;;;21.70;93.00;;;;;;6118004;23;20014;-79
2023/08/23 04:40:30;;;;;;;2.70;1.90;;;21.70;93.00;;;;;;6119544;23;20014;-78
2023/08/23 04:42:55;;;;;;;3.40;2.00;;;21.70;93.00;;;;;;6119586;23;20036;-78
2023/08/23 04:45:21;;;;;;;2.80;1.83;;;21.80;93.00;;;;;;6119809;23;20016;-79
2023/08/23 04:47:46;;;;;;;3.10;1.73;;;21.70;93.00;;;;;;6119539;23;20017;-77
2023/08/23 04:50:12;;;;;;;2.63;1.77;;;21.70;93.00;;;;;;6120835;23;20014;-78
2023/08/23 04:52:37;;;;;;;2.78;1.80;;;21.70;93.00;;;;;;6118977;23;20442;-78
2023/08/23 04:55:04;;;;;;;2.78;1.80;;;21.70;93.00;;;;;;6118836;23;20516;-78
2023/08/23 04:57:30;;;;;;;2.90;1.80;;;21.80;93.00;;;;;;6119252;23;20010;-78
2023/08/23 04:59:55;;;;;;;3.33;2.30;;;21.70;92.90;;;;;;6118687;23;20006;-78
2023/08/23 05:02:21;;;;;;;3.15;1.95;;;21.70;92.90;;;;;;6120911;23;20423;-78
2023/08/23 05:04:46;;;;;;;3.58;2.20;;;21.80;92.90;;;;;;6119976;23;20010;-76
2023/08/23 05:07:12;;;;;;;3.35;2.03;;;21.80;92.90;;;;;;6118444;23;20017;-78
2023/08/23 05:09:38;;;;;;;3.15;1.90;;;21.80;92.80;;;;;;6118624;23;20006;-78
2023/08/23 05:12:03;;;;;;;3.30;2.20;;;21.90;92.80;;;;;;6120983;23;20049;-78
2023/08/23 05:14:29;;;;;;;2.90;1.88;;;21.90;92.80;;;;;;6119052;23;20032;-77
2023/08/23 05:16:54;;;;;;;4.43;2.22;;;21.90;92.70;;;;;;6119992;23;20472;-79
2023/08/23 05:19:20;;;;;;;3.10;1.88;;;21.90;92.70;;;;;;6120129;23;20006;-78
2023/08/23 05:21:45;;;;;;;3.92;2.40;;;21.90;92.70;;;;;;6121548;23;20006;-80
2023/08/23 05:24:11;;;;;;;3.00;1.98;;;21.90;92.60;;;;;;6119787;23;20094;-79
2023/08/23 05:26:36;;;;;;;3.50;2.00;;;21.90;92.60;;;;;;6121518;23;20013;-79
2023/08/23 05:29:02;;;;;;;3.10;1.90;;;21.80;92.60;;;;;;6119842;23;20010;-79
2023/08/23 05:31:28;;;;;;;3.88;2.17;;;21.90;92.90;;;;;;6119972;23;20002;-78
2023/08/23 05:33:53;;;;;;;2.67;2.03;;;21.80;92.60;;;;;;6119977;23;20052;-81
2023/08/23 05:36:19;;;;;;;3.20;2.08;;;21.80;92.90;;;;;;6121747;23;20006;-79
2023/08/23 05:38:46;;;;;;;4.30;2.50;;;21.80;92.60;;;;;;6124744;23;20009;-80
2023/08/23 05:41:11;;;;;;;4.97;2.65;;;21.80;92.60;;;;;;6125381;23;20006;-80
2023/08/23 05:43:37;;;;;;;3.90;2.45;;;21.80;92.60;;;;;;6124816;23;20006;-81
2023/08/23 05:46:03;;;;;;;4.32;2.65;;;21.80;92.60;;;;;;6126016;23;19998;-80
2023/08/23 05:48:29;;;;;;;3.80;2.40;;;21.80;92.80;;;;;;6122188;23;20061;-80
2023/08/23 05:50:54;;;;;;;4.00;2.47;;;21.80;92.50;;;;;;6122067;23;20006;-80
2023/08/23 05:53:19;;;;;;;4.57;2.42;;;21.80;92.50;;;;;;6121896;23;20009;-80
2023/08/23 05:55:49;;;;;;;4.25;2.50;;;21.80;92.50;;;;;;6121765;23;20001;-80
2023/08/23 05:58:18;;;;;;;3.85;2.50;;;21.80;92.50;;;;;;6121972;23;20009;-80
2023/08/23 06:00:46;;;;;;;4.88;3.05;;;21.80;92.50;;;;;;6121863;23;20325;-81
2023/08/23 06:03:14;;;;;;;4.25;2.70;;;21.80;92.70;;;;;;6123266;23;20062;-80
2023/08/23 06:05:41;;;;;;;4.47;2.78;;;21.90;92.40;;;;;;6125658;23;20009;-80
2023/08/23 06:08:07;;;;;;;4.05;2.53;;;21.80;92.30;;;;;;6123867;23;20016;-80
2023/08/23 06:10:33;;;;;;;5.05;3.15;;;21.90;92.30;;;;;;6124144;23;20002;-80
2023/08/23 06:12:58;;;;;;;3.80;2.40;;;21.90;92.30;;;;;;6125682;23;20129;-80
2023/08/23 06:15:24;;;;;;;4.65;2.92;;;21.90;92.30;;;;;;6123797;23;20045;-81
2023/08/23 06:17:50;;;;;;;5.68;2.90;;;22.00;92.30;;;;;;6123730;23;20014;-81
2023/08/23 06:20:16;;;;;;;4.57;2.85;;;21.90;92.30;;;;;;6123800;23;20014;-80
2023/08/23 06:22:43;;;;;;;4.93;2.85;;;21.80;92.30;;;;;;6123639;23;20477;-80
2023/08/23 06:25:09;;;;;;;4.63;2.83;;;21.90;92.40;;;;;;6125128;23;20036;-81
2023/08/23 06:27:34;;;;;;;4.55;2.83;;;21.90;92.40;;;;;;6125439;23;20002;-80
2023/08/23 06:30:00;;;;;;;4.55;2.80;;;22.00;92.40;;;;;;6123466;23;20002;-81
2023/08/23 06:32:26;;;;;;;5.10;2.80;;;22.00;92.30;;;;;;6125291;23;20078;-80
2023/08/23 06:34:53;;;;;;;4.45;2.75;;;22.00;92.20;;;;;;6123079;23;20097;-80
2023/08/23 06:37:18;;;;;;;4.40;2.83;;;22.00;92.10;;;;;;6123541;23;20013;-81
2023/08/23 06:39:44;;;;;;;4.63;2.95;;;22.10;92.00;;;;;;6123491;23;20093;-80
2023/08/23 06:42:09;;;;;;;4.30;2.80;;;22.10;91.90;;;;;;6123637;23;20092;-82
2023/08/23 06:44:35;;;;;;;4.28;2.58;;;22.20;91.80;;;;;;6124576;23;20009;-81
2023/08/23 06:47:00;;;;;;;4.85;2.80;;;22.30;91.80;;;;;;6125343;23;20006;-81
2023/08/23 06:49:26;;;;;;;4.63;2.90;;;22.20;91.70;;;;;;6126504;23;20009;-82
2023/08/23 06:51:51;;;;;;;5.20;2.92;;;22.20;91.60;;;;;;6127974;23;20442;-80
2023/08/23 06:54:17;;;;;;;3.80;2.70;;;22.30;91.60;;;;;;6127370;23;20008;-81
2023/08/23 06:56:43;;;;;;;4.20;2.90;;;22.20;91.60;;;;;;6127401;23;20006;-81
2023/08/23 06:59:08;;;;;;;6.13;3.13;;;22.30;91.50;;;;;;6128499;23;20002;-81
2023/08/23 07:01:34;;;;;;;5.00;2.88;;;22.30;91.50;;;;;;6128906;23;20002;-81
2023/08/23 07:03:59;;;;;;;4.55;3.10;;;22.30;91.50;;;;;;6127847;23;20002;-81
2023/08/23 07:06:25;;;;;;;5.43;3.30;;;22.30;91.50;;;;;;6128526;23;20341;-82
2023/08/23 07:08:50;;;;;;;5.03;3.38;;;22.30;91.50;;;;;;6128969;23;20049;-81
2023/08/23 07:11:16;;;;;;;4.93;3.00;;;22.40;91.60;;;;;;6132105;23;20025;-82
2023/08/23 07:13:41;;;;;;;4.82;3.10;;;22.30;91.50;;;;;;6133013;23;20093;-80
2023/08/23 07:16:07;;;;;;;5.38;3.30;;;22.30;91.50;;;;;;6130828;23;20014;-81
2023/08/23 07:18:32;;;;;;;5.65;3.40;;;22.30;91.40;;;;;;6132519;23;20334;-80
2023/08/23 07:20:58;;;;;;;5.38;3.13;;;22.40;91.30;;;;;;6131716;23;20085;-81
2023/08/23 07:23:24;;;;;;;4.82;3.33;;;22.30;91.50;;;;;;6130240;23;20006;-81
2023/08/23 07:25:50;;;;;;;5.10;3.28;;;22.40;91.30;;;;;;6129366;23;20017;-80
2023/08/23 07:28:15;;;;;;;4.43;2.85;;;22.40;91.30;;;;;;6130025;23;20010;-80
2023/08/23 07:30:46;;;;;;;4.85;2.97;;;22.50;91.30;;;;;;6131684;23;19998;-80
2023/08/23 07:33:11;;;;;;;6.22;3.65;;;22.40;91.20;;;;;;6129427;23;20012;-80
2023/08/23 07:35:37;;;;;;;5.13;3.40;;;22.50;91.20;;;;;;6128769;23;20001;-80
2023/08/23 07:38:03;;;;;;;4.55;2.95;;;22.50;91.20;;;;;;6128750;23;20002;-80
2023/08/23 07:40:28;;;;;;;4.53;2.80;;;22.50;91.10;;;;;;6128407;23;20346;-81
2023/08/23 07:42:54;;;;;;;4.50;2.90;;;22.50;91.10;;;;;;6128439;23;20026;-80
2023/08/23 07:45:20;;;;;;;5.15;3.15;;;22.60;91.10;;;;;;6128273;23;20014;-80
2023/08/23 07:47:46;;;;;;;4.82;3.10;;;22.60;91.00;;;;;;6127913;23;20093;-80
2023/08/23 07:50:12;;;;;;;4.82;3.10;;;22.60;91.00;;;;;;6127688;23;20006;-80
2023/08/23 07:52:37;;;;;;;4.63;3.00;;;22.60;91.00;;;;;;6128283;23;20433;-80
2023/08/23 07:55:05;;;;;;;4.97;3.00;;;22.60;90.90;;;;;;6127794;23;20053;-80
2023/08/23 07:57:30;;;;;;;4.97;3.00;;;22.70;90.90;;;;;;6127746;23;20002;-80
2023/08/23 07:59:56;;;;;;;5.55;3.15;;;22.70;90.80;;;;;;6125858;23;20377;-80
2023/08/23 08:02:22;;;;;;;4.78;3.03;;;22.70;90.70;;;;;;6127489;23;20009;-80
2023/08/23 08:04:48;;;;;;;5.32;3.30;;;22.80;90.70;;;;;;6124728;23;20010;-80
2023/08/23 08:07:13;;;;;;;5.63;3.00;;;22.90;90.70;;;;;;6125557;23;20032;-80
2023/08/23 08:09:39;;;;;;;4.95;3.00;;;22.80;90.60;;;;;;6127045;23;20002;-80
2023/08/23 08:12:05;;;;;;;5.05;3.15;;;22.90;90.50;;;;;;6125257;23;20002;-80
2023/08/23 08:14:30;;;;;;;4.55;2.88;;;22.90;90.50;;;;;;6124963;23;20006;-80
2023/08/23 08:16:56;;;;;;;4.80;2.92;;;22.90;90.50;;;;;;6124653;23;20027;-80
2023/08/23 08:19:22;;;;;;;4.40;2.92;;;22.90;90.40;;;;;;6126344;23;20010;-80
2023/08/23 08:21:47;;;;;;;5.57;2.90;;;23.00;90.40;;;;;;6124509;23;20373;-80
2023/08/23 08:24:12;;;;;;;4.85;2.85;;;23.00;90.40;;;;;;6124535;23;20339;-80
2023/08/23 08:26:38;;;;;;;4.97;3.10;;;23.00;90.40;;;;;;6126256;23;20013;-80
2023/08/23 08:29:03;;;;;;;4.70;2.80;;;23.00;90.40;;;;;;6125126;23;19994;-80
2023/08/23 08:31:29;;;;;;;4.78;3.03;;;23.00;90.50;;;;;;6125041;23;19998;-80
2023/08/23 08:33:57;;;;;;;5.10;3.20;;;23.00;90.50;;;;;;6126208;23;20005;-80
2023/08/23 08:36:23;;;;;;;5.53;3.13;;;22.90;90.40;;;;;;6125027;23;20032;-80
2023/08/23 08:38:48;;;;;;;4.90;3.10;;;22.90;90.50;;;;;;6126694;23;20529;-80
2023/08/23 08:41:14;;;;;;;4.78;3.00;;;22.90;90.50;;;;;;6126757;23;20306;-80
2023/08/23 08:43:40;;;;;;;4.20;2.70;;;22.90;90.60;;;;;;6125114;23;20009;-80
2023/08/23 08:46:06;;;;;;;4.65;3.00;;;22.80;90.60;;;;;;6125382;23;20334;-80
2023/08/23 08:48:32;;;;;;;4.30;2.70;;;22.80;90.70;;;;;;6125271;23;20036;-80
2023/08/23 08:50:59;;;;;;;4.40;2.72;;;22.80;90.80;;;;;;6125393;23;20106;-80
2023/08/23 08:53:26;;;;;;;4.63;2.90;;;22.80;90.90;;;;;;6125017;23;20013;-78
2023/08/23 08:55:52;;;;;;;4.10;2.63;;;22.80;91.00;;;;;;6126292;23;20033;-80
2023/08/23 08:58:21;;;;;;;4.13;2.75;;;22.80;91.00;;;;;;6125068;23;20010;-80
2023/08/23 09:00:53;;;;;;;4.43;2.80;;;22.80;90.90;;;;;;6125201;23;20005;-80
2023/08/23 09:03:19;;;;;;;4.68;2.85;;;22.90;90.80;;;;;;6124778;23;20009;-80
2023/08/23 09:05:48;;;;;;;4.38;2.80;;;22.90;90.80;;;;;;6126119;23;20005;-80
2023/08/23 09:08:14;;;;;;;4.53;2.95;;;22.90;90.70;;;;;;6124449;23;20006;-80
2023/08/23 09:10:40;;;;;;;4.28;2.70;;;22.90;90.70;;;;;;6126099;23;20425;-79
2023/08/23 09:13:05;;;;;;;4.55;2.80;;;23.00;90.70;;;;;;6125866;23;20057;-80
2023/08/23 09:15:31;;;;;;;3.85;2.65;;;23.00;90.60;;;;;;6125828;23;20009;-80
2023/08/23 09:17:57;;;;;;;4.18;2.53;;;23.00;90.60;;;;;;6126024;23;20449;-79
2023/08/23 09:20:23;;;;;;;3.75;2.53;;;23.00;90.60;;;;;;6126499;23;20345;-80
2023/08/23 09:22:52;;;;;;;4.25;2.42;;;23.00;90.60;;;;;;6124177;23;20010;-80
2023/08/23 09:25:18;;;;;;;5.68;2.80;;;23.00;90.60;;;;;;6123926;23;20013;-80
2023/08/23 09:27:44;;;;;;;3.95;2.50;;;23.00;90.60;;;;;;6123398;23;20006;-79
2023/08/23 09:30:11;;;;;;;4.93;2.60;;;23.10;90.50;;;;;;6124168;23;20081;-80
2023/08/23 09:32:37;;;;;;;4.90;2.88;;;23.10;90.50;;;;;;6123745;23;20006;-80
2023/08/23 09:35:10;;;;;;;3.85;2.55;;;23.20;90.40;;;;;;6123788;23;20025;-80
2023/08/23 09:37:38;;;;;;;3.88;2.30;;;23.20;90.40;;;;;;6123880;23;20014;-80
2023/08/23 09:40:04;;;;;;;3.65;2.42;;;23.20;90.40;;;;;;6125626;23;20038;-80
2023/08/23 09:42:33;;;;;;;4.43;2.65;;;23.20;90.30;;;;;;6125439;23;20085;-79
2023/08/23 09:45:01;;;;;;;3.42;2.38;;;23.30;90.30;;;;;;6125850;23;20130;-80
2023/08/23 09:47:32;;;;;;;3.60;2.20;;;23.30;90.30;;;;;;6125416;23;20006;-80
2023/08/23 09:49:58;;;;;;;;;;;23.30;90.30;;;;;;6124434;23;20012;-80
2023/08/23 09:52:29;;;;;;;4.25;2.45;;;23.30;90.50;;;;;;6125425;23;20317;-79
2023/08/23 09:54:59;;;;;;;;;;;23.30;90.20;;;;;;6124263;23;20010;-80
2023/08/23 09:57:25;;;;;;;3.77;2.33;;;23.30;90.20;;;;;;6125473;23;19908;-80
2023/08/23 09:59:51;;;;;;;4.65;2.50;;;23.30;90.20;;;;;;6123829;23;20013;-80
2023/08/23 10:02:18;;;;;;;3.22;2.10;;;23.30;90.20;;;;;;6124164;23;20088;-80
2023/08/23 10:04:44;;;;;;;3.78;2.47;;;23.30;90.20;;;;;;6123207;23;20353;-80
2023/08/23 10:07:13;;;;;;;2.95;2.10;;;23.20;90.20;;;;;;6127063;23;20500;-80
2023/08/23 10:09:39;;;;;;;3.78;2.28;;;23.30;90.30;;;;;;6125496;23;20002;-80
2023/08/23 10:12:07;;;;;;;3.80;2.20;;;23.30;90.30;;;;;;6127888;23;20053;-80
2023/08/23 10:14:37;;;;;;;3.05;1.95;;;23.30;90.40;;;;;;6125724;23;20002;-80
2023/08/23 10:17:06;;;;;;;4.05;2.25;;;23.20;90.40;;;;;;6126889;23;20167;-80
2023/08/23 10:19:32;;;;;;;3.33;2.00;;;23.30;90.40;;;;;;6128784;23;20013;-80
2023/08/23 10:21:58;;;;;;;4.07;2.42;;;23.30;90.40;;;;;;6128281;23;20441;-80
2023/08/23 10:24:31;;;;;;;3.97;2.20;;;23.30;90.40;;;;;;6127813;23;20002;-80
2023/08/23 10:27:04;;;;;;;3.33;2.10;;;23.30;90.40;;;;;;6129465;23;20013;-80
2023/08/23 10:29:31;;;;;;;4.00;2.28;;;23.30;90.40;;;;;;6129020;23;20084;-80
2023/08/23 10:31:57;;;;;;;3.35;2.20;;;23.30;90.40;;;;;;6127976;23;20007;-80
2023/08/23 10:34:27;;;;;;;2.95;1.90;;;23.30;90.40;;;;;;6127437;23;20006;-80
2023/08/23 10:36:53;;;;;;;3.30;1.90;;;23.30;90.40;;;;;;6127534;23;20295;-80
2023/08/23 10:39:26;;;;;;;3.78;2.17;;;23.30;90.40;;;;;;6128872;23;20080;-80
2023/08/23 10:41:53;;;;;;;3.15;2.00;;;23.30;90.40;;;;;;6127618;23;20013;-80
2023/08/23 10:44:20;;;;;;;3.63;2.20;;;23.30;90.40;;;;;;6127365;23;20006;-80
2023/08/23 10:46:46;;;;;;;3.33;1.83;;;23.30;90.40;;;;;;6126872;23;20013;-80
2023/08/23 10:49:12;;;;;;;2.95;1.90;;;23.30;90.40;;;;;;6127089;23;20006;-80
2023/08/23 10:51:41;;;;;;;4.00;2.10;;;23.30;90.40;;;;;;6125348;23;19998;-80
2023/08/23 10:54:11;;;;;;;3.72;1.90;;;23.30;90.40;;;;;;6125018;23;20002;-80
2023/08/23 10:56:37;;;;;;;3.03;1.80;;;23.30;90.40;;;;;;6125100;23;20033;-80
2023/08/23 10:59:03;;;;;;;2.70;1.50;;;23.30;90.40;;;;;;6126180;23;20069;-80
2023/08/23 11:01:29;;;;;;;3.58;2.03;;;23.40;90.40;;;;;;6126236;23;20077;-80
2023/08/23 11:03:55;;;;;;;2.72;1.85;;;23.40;90.30;;;;;;6123736;23;20476;-80
2023/08/23 11:06:21;;;;;;;3.22;1.80;;;23.40;90.30;;;;;;6124474;23;20085;-80
2023/08/23 11:08:46;;;;;;;3.10;1.83;;;23.40;90.30;;;;;;6125796;23;20398;-80
2023/08/23 11:11:12;;;;;;;2.70;1.90;;;23.40;90.30;;;;;;6126163;23;20459;-80
2023/08/23 11:13:38;;;;;;;2.83;2.00;;;23.40;90.30;;;;;;6125727;23;20040;-80
2023/08/23 11:16:04;;;;;;;3.03;1.90;;;23.40;90.20;;;;;;6123743;23;20048;-80
2023/08/23 11:18:30;;;;;;;3.15;1.63;;;23.40;90.20;;;;;;6123993;23;20010;-80
2023/08/23 11:20:57;;;;;;;3.15;2.00;;;23.40;90.20;;;;;;6124158;23;20437;-80
2023/08/23 11:23:23;;;;;;;2.35;1.70;;;23.40;90.20;;;;;;6123902;23;20654;-79
2023/08/23 11:25:48;;;;;;;2.50;1.77;;;23.40;90.20;;;;;;6123762;23;20006;-80
2023/08/23 11:28:16;;;;;;;3.55;1.70;;;23.40;90.20;;;;;;6124147;23;20744;-80
2023/08/23 11:30:42;;;;;;;2.13;1.58;;;23.40;90.30;;;;;;6124081;23;20010;-80
2023/08/23 11:33:08;;;;;;;2.55;1.58;;;23.40;90.30;;;;;;6125758;23;20014;-80
2023/08/23 11:35:34;;;;;;;2.15;1.60;;;23.30;90.40;;;;;;6123484;23;20013;-80
2023/08/23 11:38:00;;;;;;;2.70;1.83;;;23.30;90.40;;;;;;6124079;23;20006;-80
2023/08/23 11:40:25;;;;;;;2.97;1.42;;;23.30;90.40;;;;;;6124165;23;20058;-80
2023/08/23 11:42:57;;;;;;;3.88;2.20;;;23.30;90.40;;;;;;6126501;23;20081;-81
2023/08/23 11:45:23;;;;;;;3.60;1.70;;;23.30;90.60;;;;;;6126026;23;20006;-80
2023/08/23 11:47:53;;;;;;;2.45;1.73;;;23.30;90.60;;;;;;6124708;23;20353;-80
2023/08/23 11:50:19;;;;;;;2.08;1.50;;;23.20;90.60;;;;;;6124467;23;20337;-80
2023/08/23 11:52:47;;;;;;;2.55;1.60;;;23.20;90.60;;;;;;6125737;23;20005;-80
2023/08/23 11:55:20;;;;;;;2.38;1.75;;;23.20;90.60;;;;;;6127375;23;20002;-80
2023/08/23 11:57:56;;;;;;;2.88;1.65;;;23.20;90.70;;;;;;6125861;23;20631;-80
2023/08/23 12:00:23;;;;;;;2.47;1.50;;;23.20;90.60;;;;;;6125981;23;20033;-80
2023/08/23 12:02:48;;;;;;;2.95;1.63;;;23.20;90.70;;;;;;6126409;23;20460;-80
2023/08/23 12:05:15;;;;;;;2.20;1.55;;;23.20;90.70;;;;;;6125167;23;20002;-80
2023/08/23 12:07:40;;;;;;;2.40;1.50;;;23.20;90.70;;;;;;6125630;23;20520;-80
2023/08/23 12:10:11;;;;;;;2.55;1.60;;;23.20;90.70;;;;;;6127079;23;20002;-80
2023/08/23 12:12:37;;;;;;;2.72;1.52;;;23.20;90.70;;;;;;6125390;23;20465;-80
2023/08/23 12:15:03;;;;;;;2.72;1.40;;;23.20;90.70;;;;;;6126635;23;20009;-80
2023/08/23 12:17:29;;;;;;;2.28;1.58;;;23.20;90.70;;;;;;6125480;23;20446;-80
2023/08/23 12:19:54;;;;;;;2.60;1.60;;;23.20;90.70;;;;;;6127203;23;20006;-80
2023/08/23 12:22:20;;;;;;;2.85;1.65;;;23.20;90.70;;;;;;6125173;23;20446;-80
2023/08/23 12:24:46;;;;;;;2.20;1.50;;;23.20;90.70;;;;;;6125959;23;20118;-80
2023/08/23 12:27:11;;;;;;;2.30;1.40;;;23.20;90.80;;;;;;6124984;23;20077;-80
2023/08/23 12:29:38;;;;;;;2.17;1.50;;;23.20;90.70;;;;;;6124998;23;20404;-80
2023/08/23 12:32:05;;;;;;;2.20;1.48;;;23.20;90.70;;;;;;6125450;23;20389;-80
2023/08/23 12:34:31;;;;;;;2.55;1.67;;;23.20;90.60;;;;;;6126122;23;20001;-80
2023/08/23 12:36:57;;;;;;;3.08;1.80;;;23.20;90.60;;;;;;6124661;23;20013;-80
2023/08/23 12:39:22;;;;;;;2.88;1.55;;;23.20;90.60;;;;;;6124752;23;20021;-80
2023/08/23 12:41:48;;;;;;;2.40;1.40;;;23.20;90.60;;;;;;6124642;23;20396;-80
2023/08/23 12:44:13;;;;;;;2.70;1.58;;;23.20;90.50;;;;;;6124076;23;20002;-80
2023/08/23 12:46:39;;;;;;;2.58;1.55;;;23.20;90.50;;;;;;6124293;23;20082;-79